ADDS METAR Data INFO
IDs: Format: Raw Decoded Include TAF

Data at: 1016 UTC 14 Dec 2017

PASH 141007Z AUTO 00000KT 2 1/2SM -SN BR BKN006 BKN019 OVC024 00/M01 A2940 RMK AO2 VIS 1 3/4V4 CIG 003V007 P0000 FZRANO
PASH 141001Z AUTO 10003KT 3SM -SN BR SCT004 BKN007 OVC024 00/M01 A2940 RMK AO2 P0000 FZRANO
PASH 140956Z AUTO 00000KT 2 1/2SM -SN BR BKN004 BKN020 OVC026 00/M01 A2940 RMK AO2 VIS 1 3/4V5 SLP955 P0002 T00001006 FZRANO
PASH 140945Z AUTO 00000KT 2 1/2SM -SN BR BKN004 OVC026 00/M01 A2939 RMK AO2 VIS 1 1/4V5 P0001 FZRANO
PASH 140936Z AUTO 08003KT 2 1/2SM -SN BR SCT004 BKN013 OVC028 00/M01 A2939 RMK AO2 VIS 1 3/4V5 P0001 FZRANO
PASH 140930Z AUTO 07004KT 3SM -SN BR FEW004 SCT013 OVC028 00/M01 A2939 RMK AO2 P0001 FZRANO
PASH 140923Z AUTO 07004KT 2 1/2SM -SN BR SCT013 BKN026 OVC031 00/M01 A2939 RMK AO2 VIS 2V4 P0001 FZRANO
PASH 140911Z AUTO 09005KT 3SM -SN BR BKN013 OVC019 00/M01 A2939 RMK AO2 P0000 FZRANO
PASH 140903Z AUTO 09005KT 2 1/2SM -SN BR BKN015 OVC020 00/M01 A2939 RMK AO2 P0000 FZRANO
PASH 140856Z AUTO 09004KT 3SM -SN BR OVC019 00/M01 A2939 RMK AO2 UPE41SNB41 SLP953 P0000 60000 T00001006 400061028 53003 FZRANO
PASH 140756Z AUTO 08008KT 10SM UP OVC021 00/M01 A2938 RMK AO2 SNB39E52 SLP952 P0000 T00001006 FZRANO
PASH 140556Z AUTO 08012KT 10SM UP OVC021 00/M01 A2938 RMK AO2 UPB48 SLP950 P0000 60003 T00001006 10006 20000 58005 FZRANO
PASH 140456Z AUTO 09008KT 10SM OVC021 00/M01 A2939 RMK AO2 UPB47E54SNE47 SLP953 P0001 T00001006 FZRANO
PASH 140356Z AUTO 08007KT 6SM -SN BR OVC023 00/M01 A2939 RMK AO2 RAE03SNB03 SLP955 P0000 T00001006 FZRANO
PASH 140220Z AUTO 10013KT 9SM -SN OVC028 01/M01 A2939 RMK AO2 P0002 FZRANO
PASH 140209Z AUTO 09014KT 9SM -SN OVC030 01/00 A2939 RMK AO2 P0001 FZRANO
PASH 140156Z AUTO 10010KT 10SM -SN BKN028 OVC035 01/00 A2939 RMK AO2 RAE51SNB51 SLP954 P0000 T00060000 FZRANO
PASH 140056Z AUTO 10010KT 10SM -RA OVC039 01/M01 A2940 RMK AO2 UPE15B51E55RAB15 SLP956 P0000 T00061006 FZRANO
PASH 132356Z AUTO 09013KT 10SM UP FEW055 OVC075 00/M01 A2941 RMK AO2 UPB44 SLP960 P0000 60000 T00001011 10000 21017 55005 FZRANO
PASH 132256Z AUTO 08008KT 10SM FEW075 OVC100 M01/M02 A2940 RMK AO2 SLP958 T10061017 FZRANO
PASH 132156Z AUTO 09009KT 10SM SCT080 M01/M02 A2943 RMK AO2 SLP966 T10061017 FZRANO
PASH 132056Z AUTO 11011KT 10SM OVC100 M01/M02 A2943 RMK AO2 SLP965 T10061017 50004 FZRANO
PASH 131956Z AUTO 11010KT 10SM OVC110 M01/M02 A2943 RMK AO2 SLP968 T10111017 FZRANO
PASH 131856Z AUTO 11019KT 10SM OVC100 M01/M02 A2942 RMK AO2 SLP964 T10061017 FZRANO
PASH 131756Z AUTO 11017KT 10SM FEW120 M02/M02 A2941 RMK AO2 SLP961 60000 T10171022 10000 21028 55005 FZRANO
PASH 131656Z AUTO 10011KT 10SM SCT065 M02/M03 A2941 RMK AO2 SLP959 T10221033 FZRANO
PASH 131556Z AUTO 10013KT 10SM BKN044 OVC055 M02/M03 A2942 RMK AO2 SLP963 T10221028 FZRANO
PASH 131456Z AUTO 10014KT 9SM OVC036 M01/M02 A2943 RMK AO2 SNE1359B19E56 SLP966 P0000 60000 T10061017 58011 FZRANO
PASH 131356Z AUTO 10019KT 9SM -SN BKN038 OVC048 M01/M02 A2944 RMK AO2 SNE02B46 SLP972 P0000 T10061017 FZRANO
PASH 131256Z AUTO 11015KT 9SM -SN BKN042 OVC095 M01/M02 A2947 RMK AO2 SNB51 SLP979 P0000 T10061017 FZRANO
PASH 131156Z AUTO 09018KT 10SM OVC110 M02/M03 A2946 RMK AO2 SLP977 T10171028 11006 21017 58009 FZRANO
PASH 131056Z AUTO 09016KT 10SM BKN110 M02/M03 A2947 RMK AO2 SLP982 T10171028 FZRANO
PASH 130956Z AUTO 11016KT 10SM OVC043 M02/M03 A2949 RMK AO2 SLP987 T10171028 FZRANO
PASH 130856Z AUTO 10015KT 10SM BKN043 BKN060 M02/M03 A2949 RMK AO2 SLP987 T10171028 410061100 56002 FZRANO
PASH 130756Z AUTO 11015KT 10SM BKN043 OVC050 M01/M02 A2949 RMK AO2 SLP988 T10061017 FZRANO
PASH 130656Z AUTO 10016KT 10SM SCT045 OVC055 M01/M01 A2949 RMK AO2 SLP987 T10061011 FZRANO
PASH 130556Z AUTO 09012KT 10SM BKN050 OVC060 M01/M02 A2950 RMK AO2 SLP989 60000 T10111022 11011 21078 58010 FZRANO
PASH 130456Z AUTO 07007KT 9SM BKN040 OVC055 M02/M03 A2951 RMK AO2 SNE53 SLP994 P0000 T10221033 FZRANO
PASH 130441Z AUTO 10009KT 9SM -SN SCT025 OVC039 M02/M03 A2951 RMK AO2 P0000 FZRANO
PASH 130356Z AUTO 09009KT 3SM -SN BR OVC029 M03/M04 A2952 RMK AO2 SLP997 P0000 T10331044 FZRANO
PASH 130256Z AUTO 06006KT 8SM -SN BKN027 OVC037 M05/M06 A2952 RMK AO2 SLP999 P0000 60000 T10501061 55011 FZRANO
PASH 130156Z AUTO 07006KT 9SM -SN OVC031 M06/M07 A2952 RMK AO2 SNB04 SLP998 P0000 T10561067 FZRANO
PASH 130056Z AUTO 05006KT 10SM FEW007 OVC031 M07/M08 A2954 RMK AO2 SNE39 SLP005 P0000 T10671078 FZRANO
PASH 122356Z AUTO 08007KT 9SM -SN FEW037 OVC046 M08/M09 A2956 RMK AO2 SNB29 SLP010 P0000 60000 T10781089 11078 21100 58006 FZRANO
PASH 122338Z AUTO 07008KT 9SM -SN SCT022 BKN035 BKN048 M08/M09 A2956 RMK AO2 SNB29 P0000 FZRANO
PASH 122256Z AUTO 07007KT 10SM BKN024 OVC090 M08/M09 A2957 RMK AO2 SNE04 SLP014 P0000 T10781089 FZRANO
PASH 122248Z AUTO 06007KT 10SM BKN024 BKN090 M08/M09 A2956 RMK AO2 SNE04 P0000 FZRANO
PASH 122231Z AUTO 06006KT 10SM SCT028 SCT090 BKN110 M08/M09 A2957 RMK AO2 SNE04 P0000 FZRANO